Time;durP1;ratioP1;P1;durP2;ratioP2;P2;SDS_P1;SDS_P2;PMS_P1;PMS_P2;Temp;Humidity;BMP_temperature;BMP_pressure;BME280_temperature;BME280_humidity;BME280_pressure;Samples;Min_cycle;Max_cycle;Signal;HPM_P1;HPM_P2
2023/07/23 00:00:26;;;;;;;13.55;5.68;;;;;;;23.73;100.00;98785.91;5142124;27;20052;-95
2023/07/23 00:02:52;;;;;;;15.05;6.03;;;;;;;23.64;100.00;98775.78;5142512;27;20055;-96
2023/07/23 00:05:21;;;;;;;11.90;6.60;;;;;;;23.62;100.00;98766.94;5142828;27;20095;-96
2023/07/23 00:07:47;;;;;;;13.95;6.40;;;;;;;23.56;100.00;98763.72;5142381;27;20049;-96
2023/07/23 00:10:13;;;;;;;18.40;6.68;;;;;;;23.44;100.00;98742.97;5142151;27;20073;-95
2023/07/23 00:12:39;;;;;;;13.73;6.60;;;;;;;23.38;100.00;98746.19;5141913;27;20039;-95
2023/07/23 00:15:05;;;;;;;13.50;6.13;;;;;;;23.36;100.00;98740.03;5142016;27;20035;-95
2023/07/23 00:17:31;;;;;;;15.40;7.28;;;;;;;23.33;100.00;98732.13;5142021;27;20047;-96
2023/07/23 00:19:57;;;;;;;18.42;6.50;;;;;;;23.36;100.00;98743.59;5141723;27;20047;-95
2023/07/23 00:22:25;;;;;;;16.35;6.72;;;;;;;23.32;100.00;98735.84;5140380;27;20427;-95
2023/07/23 00:24:56;;;;;;;18.40;6.90;;;;;;;23.36;100.00;98759.03;5141328;27;20095;-96
2023/07/23 00:27:22;;;;;;;16.77;7.13;;;;;;;23.23;100.00;98742.88;5141123;27;20130;-96
2023/07/23 00:29:48;;;;;;;17.20;7.22;;;;;;;23.32;100.00;98749.41;5139685;27;20085;-95
2023/07/23 00:32:14;;;;;;;15.48;7.43;;;;;;;23.27;100.00;98735.31;5139589;27;20050;-95
2023/07/23 00:34:40;;;;;;;15.07;7.50;;;;;;;23.40;100.00;98762.34;5140308;27;20074;-95
2023/07/23 00:37:06;;;;;;;18.70;8.77;;;;;;;23.21;100.00;98746.69;5139985;27;20070;-96
2023/07/23 00:39:33;;;;;;;19.13;7.40;;;;;;;23.08;100.00;98725.94;5140089;27;20051;-95
2023/07/23 00:41:59;;;;;;;17.58;7.50;;;;;;;23.11;100.00;98744.69;5139658;27;20043;-95
2023/07/23 00:44:26;;;;;;;16.38;7.15;;;;;;;23.08;100.00;98734.09;5137588;27;20044;-95
2023/07/23 00:46:53;;;;;;;16.10;7.85;;;;;;;23.00;100.00;98722.97;5138102;27;20126;-95
2023/07/23 00:49:19;;;;;;;17.25;7.57;;;;;;;23.07;100.00;98728.78;5138477;27;20467;-94
2023/07/23 00:51:46;;;;;;;16.55;7.32;;;;;;;23.09;100.00;98727.66;5139803;27;20039;-95
2023/07/23 00:54:13;;;;;;;16.15;7.45;;;;;;;23.26;100.00;98758.03;5138969;27;20039;-96
2023/07/23 00:56:43;;;;;;;17.58;8.05;;;;;;;23.23;100.00;98753.72;5138873;27;20046;-96
2023/07/23 00:59:09;;;;;;;19.50;8.95;;;;;;;23.05;100.00;98734.34;5138997;27;20043;-96
2023/07/23 01:01:35;;;;;;;22.95;8.43;;;;;;;23.12;100.00;98748.28;5138448;27;20036;-94
2023/07/23 01:04:01;;;;;;;17.08;7.95;;;;;;;23.04;100.00;98718.19;5139321;27;20142;-95
2023/07/23 01:06:29;;;;;;;21.05;8.23;;;;;;;23.08;100.00;98736.81;5138480;27;20036;-96
2023/07/23 01:08:55;;;;;;;16.90;7.82;;;;;;;22.98;100.00;98755.59;5137658;27;20385;-96
2023/07/23 01:11:22;;;;;;;17.05;7.93;;;;;;;22.96;100.00;98737.72;5138978;27;20055;-96
2023/07/23 01:13:51;;;;;;;18.25;8.75;;;;;;;22.96;100.00;98743.16;5138341;27;20043;-95
2023/07/23 01:16:18;;;;;;;17.30;8.20;;;;;;;23.01;100.00;98757.25;5138579;27;20082;-95
2023/07/23 01:18:44;;;;;;;19.88;8.40;;;;;;;22.81;100.00;98730.78;5138499;27;20043;-96
2023/07/23 01:21:10;;;;;;;20.48;7.93;;;;;;;22.88;100.00;98741.06;5138552;27;20027;-96
2023/07/23 01:23:38;;;;;;;20.25;9.32;;;;;;;22.97;100.00;98744.91;5137731;27;20039;-95
2023/07/23 01:26:04;;;;;;;16.65;8.25;;;;;;;22.98;100.00;98741.19;5138829;27;20043;-95
2023/07/23 01:28:30;;;;;;;16.50;8.13;;;;;;;23.08;100.00;98750.38;5137827;27;20039;-96
2023/07/23 01:30:56;;;;;;;17.10;7.93;;;;;;;22.95;100.00;98730.59;5138838;27;20146;-95
2023/07/23 01:33:22;;;;;;;18.75;7.90;;;;;;;23.00;100.00;98743.78;5138721;27;20071;-96
2023/07/23 01:35:52;;;;;;;22.52;8.40;;;;;;;22.96;100.00;98738.59;5137698;27;20039;-96
2023/07/23 01:38:18;;;;;;;19.85;8.80;;;;;;;23.06;100.00;98748.75;5137646;27;20043;-95
2023/07/23 01:40:46;;;;;;;21.30;8.18;;;;;;;22.94;100.00;98740.59;5136975;28;20047;-94
2023/07/23 01:43:12;;;;;;;19.33;8.00;;;;;;;22.93;100.00;98732.56;5137282;28;20403;-96
2023/07/23 01:45:41;;;;;;;20.70;8.07;;;;;;;22.97;100.00;98744.91;5137047;28;20047;-95
2023/07/23 01:48:07;;;;;;;17.80;8.07;;;;;;;22.81;100.00;98714.53;5137259;28;20492;-96
2023/07/23 01:50:33;;;;;;;18.50;8.27;;;;;;;22.93;100.00;98743.41;5137388;28;20446;-96
2023/07/23 01:52:59;;;;;;;15.20;7.90;;;;;;;22.90;100.00;98743.63;5137733;28;20039;-96
2023/07/23 01:55:25;;;;;;;16.70;8.25;;;;;;;22.71;100.00;98723.38;5139590;28;20488;-95
2023/07/23 01:57:52;;;;;;;16.25;8.07;;;;;;;22.68;100.00;98725.47;5139650;28;20548;-96
2023/07/23 02:00:19;;;;;;;21.27;9.10;;;;;;;22.84;100.00;98757.69;5140019;27;20500;-95
2023/07/23 02:02:45;;;;;;;17.58;8.70;;;;;;;22.65;100.00;98729.28;5143376;27;20063;-95
2023/07/23 02:05:11;;;;;;;18.73;8.48;;;;;;;22.64;100.00;98727.56;5142592;27;20052;-96
2023/07/23 02:07:37;;;;;;;21.15;9.20;;;;;;;22.65;100.00;98736.56;5142851;27;20043;-96
2023/07/23 02:10:03;;;;;;;20.75;8.52;;;;;;;22.72;100.00;98754.06;5141158;27;20103;-95
2023/07/23 02:12:29;;;;;;;18.30;8.32;;;;;;;22.67;100.00;98749.00;5143067;27;20053;-95
2023/07/23 02:14:56;;;;;;;22.17;8.43;;;;;;;22.53;100.00;98732.94;5142324;27;20141;-95
2023/07/23 02:17:22;;;;;;;17.95;8.43;;;;;;;22.46;100.00;98734.38;5142319;27;20492;-94
2023/07/23 02:19:48;;;;;;;17.45;8.45;;;;;;;22.38;100.00;98734.09;5141629;27;20096;-96
2023/07/23 02:22:16;;;;;;;19.58;8.98;;;;;;;22.40;100.00;98745.69;5141309;27;20471;-94
2023/07/23 02:24:42;;;;;;;20.47;8.33;;;;;;;22.32;100.00;98732.75;5142100;27;20110;-96
2023/07/23 02:27:08;;;;;;;19.52;8.43;;;;;;;22.34;100.00;98752.47;5141130;27;20322;-96
2023/07/23 02:29:34;;;;;;;22.50;8.48;;;;;;;22.31;100.00;98745.41;5140803;27;20051;-95
2023/07/23 02:32:02;;;;;;;19.20;8.32;;;;;;;22.27;100.00;98734.91;5142104;27;20047;-96
2023/07/23 02:34:28;;;;;;;20.40;8.82;;;;;;;22.33;100.00;98758.84;5140773;27;20050;-96
2023/07/23 02:36:54;;;;;;;15.82;8.30;;;;;;;22.28;100.00;98748.34;5139854;27;20047;-96
2023/07/23 02:39:20;;;;;;;21.35;8.98;;;;;;;22.11;100.00;98727.06;5140302;27;20047;-95
2023/07/23 02:41:46;;;;;;;17.23;8.35;;;;;;;22.08;100.00;98746.25;5139997;27;20107;-95
2023/07/23 02:44:12;;;;;;;22.80;9.45;;;;;;;22.09;100.00;98758.81;5139993;27;20111;-95
2023/07/23 02:46:38;;;;;;;22.90;8.43;;;;;;;22.04;100.00;98756.44;5139958;27;20111;-96
2023/07/23 02:49:05;;;;;;;23.05;8.52;;;;;;;22.10;100.00;98777.66;5139086;27;20077;-95
2023/07/23 02:51:31;;;;;;;18.52;8.75;;;;;;;21.94;100.00;98756.25;5138752;27;20047;-95
2023/07/23 02:53:57;;;;;;;20.55;9.70;;;;;;;21.93;100.00;98768.06;5140212;27;20402;-95
2023/07/23 02:56:23;;;;;;;17.35;8.82;;;;;;;22.07;100.00;98793.25;5139690;27;20043;-95
2023/07/23 02:58:49;;;;;;;18.95;8.25;;;;;;;21.97;100.00;98776.84;5140340;27;20046;-95
2023/07/23 03:01:15;;;;;;;22.08;8.80;;;;;;;21.99;100.00;98787.53;5139523;27;20556;-95
2023/07/23 03:03:41;;;;;;;17.05;8.63;;;;;;;21.83;100.00;98769.72;5139337;27;20046;-95
2023/07/23 03:06:09;;;;;;;21.92;8.63;;;;;;;21.90;100.00;98799.91;5138928;27;20039;-95
2023/07/23 03:08:35;;;;;;;16.83;9.27;;;;;;;21.77;100.00;98781.00;5139390;27;20092;-96
2023/07/23 03:11:01;;;;;;;22.67;9.02;;;;;;;21.87;100.00;98795.59;5139597;27;20043;-96
2023/07/23 03:13:27;;;;;;;23.30;9.82;;;;;;;21.82;100.00;98789.66;5139027;27;20047;-95
2023/07/23 03:15:52;;;;;;;22.65;8.55;;;;;;;21.77;100.00;98797.22;5138999;27;20088;-95
2023/07/23 03:18:18;;;;;;;20.20;8.80;;;;;;;21.81;100.00;98796.03;5140043;27;20047;-95
2023/07/23 03:20:44;;;;;;;18.70;8.68;;;;;;;21.87;100.00;98806.44;5140239;27;20039;-95
2023/07/23 03:23:12;;;;;;;21.40;8.77;;;;;;;21.89;100.00;98801.75;5139791;27;20042;-94
2023/07/23 03:25:37;;;;;;;17.77;8.93;;;;;;;22.02;100.00;98814.41;5139275;27;20149;-95
2023/07/23 03:28:03;;;;;;;19.52;8.80;;;;;;;22.02;100.00;98820.69;5139632;27;20492;-96
2023/07/23 03:30:29;;;;;;;19.02;8.82;;;;;;;22.11;100.00;98830.84;5138348;27;20051;-96
2023/07/23 03:32:55;;;;;;;20.42;8.95;;;;;;;22.04;100.00;98821.44;5139408;27;20055;-96
2023/07/23 03:35:21;;;;;;;20.20;8.73;;;;;;;22.11;100.00;98825.41;5139373;27;20039;-96
2023/07/23 03:37:48;;;;;;;18.33;8.80;;;;;;;22.09;100.00;98827.38;5139427;27;20069;-95
2023/07/23 03:40:15;;;;;;;19.25;8.60;;;;;;;22.25;100.00;98842.53;5139234;27;20545;-96
2023/07/23 03:42:41;;;;;;;24.77;9.05;;;;;;;22.27;100.00;98838.75;5139189;27;20046;-96
2023/07/23 03:45:08;;;;;;;25.25;8.82;;;;;;;22.33;100.00;98827.44;5139019;27;20051;-95
2023/07/23 03:47:34;;;;;;;20.90;8.93;;;;;;;22.48;100.00;98844.38;5138601;27;20071;-95
2023/07/23 03:50:00;;;;;;;19.35;8.68;;;;;;;22.31;100.00;98823.09;5138288;27;20404;-96
2023/07/23 03:52:26;;;;;;;18.13;9.30;;;;;;;22.36;100.00;98837.19;5139126;27;20057;-95
2023/07/23 03:54:52;;;;;;;16.48;8.57;;;;;;;22.26;100.00;98830.72;5138965;27;20047;-95
2023/07/23 03:57:19;;;;;;;24.25;9.32;;;;;;;22.28;100.00;98840.47;5138941;27;20039;-95
2023/07/23 03:59:46;;;;;;;20.90;8.52;;;;;;;22.23;100.00;98833.63;5139290;27;20450;-95
2023/07/23 04:02:12;;;;;;;19.48;8.65;;;;;;;22.29;100.00;98844.91;5138586;27;20111;-94
2023/07/23 04:04:39;;;;;;;17.98;8.43;;;;;;;22.24;100.00;98835.38;5138824;27;20019;-95
2023/07/23 04:07:06;;;;;;;19.52;9.05;;;;;;;22.34;100.00;98842.72;5138604;27;20035;-94
2023/07/23 04:09:32;;;;;;;21.95;8.88;;;;;;;22.27;100.00;98808.94;5138504;27;20051;-95
2023/07/23 04:11:59;;;;;;;20.27;9.02;;;;;;;22.47;100.00;98822.84;5136740;27;20142;-96
2023/07/23 04:14:27;;;;;;;18.33;8.93;;;;;;;22.41;100.00;98798.91;5137860;27;20043;-96
2023/07/23 04:16:53;;;;;;;21.58;9.35;;;;;;;22.55;100.00;98812.25;5137934;27;20050;-93
2023/07/23 04:19:19;;;;;;;22.27;8.85;;;;;;;22.50;100.00;98798.22;5137497;27;20050;-94
2023/07/23 04:21:45;;;;;;;21.90;8.98;;;;;;;22.72;100.00;98819.97;5137718;27;20035;-95
2023/07/23 04:24:11;;;;;;;22.48;8.68;;;;;;;22.64;100.00;98798.03;5136862;27;20043;-95
2023/07/23 04:26:37;;;;;;;19.40;8.38;;;;;;;22.66;100.00;98796.06;5138053;27;20053;-95
2023/07/23 04:29:03;;;;;;;21.13;9.30;;;;;;;22.77;100.00;98815.09;5138207;27;20049;-96
2023/07/23 04:31:31;;;;;;;18.63;8.40;;;;;;;22.77;100.00;98809.66;5139107;27;20092;-96
2023/07/23 04:33:59;;;;;;;20.20;8.20;;;;;;;22.85;100.00;98827.19;5138503;27;20067;-95
2023/07/23 04:36:24;;;;;;;19.35;8.55;;;;;;;22.67;100.00;98808.63;5139880;27;20046;-95
2023/07/23 04:38:50;;;;;;;17.83;8.10;;;;;;;22.75;100.00;98818.91;5141879;27;20484;-96
2023/07/23 04:41:16;;;;;;;20.60;9.02;;;;;;;22.73;100.00;98813.59;5139131;27;20053;-96
2023/07/23 04:43:43;;;;;;;20.67;8.95;;;;;;;22.92;100.00;98828.44;5141211;27;20138;-96
2023/07/23 04:46:09;;;;;;;19.58;8.73;;;;;;;23.11;100.00;98844.19;5139712;27;20022;-95
2023/07/23 04:48:37;;;;;;;19.95;8.43;;;;;;;23.01;100.00;98825.06;5140488;27;20039;-96
2023/07/23 04:51:04;;;;;;;22.80;8.77;;;;;;;23.09;100.00;98819.88;5141341;27;20047;-96
2023/07/23 04:53:30;;;;;;;22.85;9.20;;;;;;;23.06;100.00;98822.00;5140052;27;20141;-96
2023/07/23 04:55:59;;;;;;;17.77;8.30;;;;;;;23.15;100.00;98808.56;5142736;27;20051;-96
2023/07/23 04:58:25;;;;;;;18.10;9.25;;;;;;;23.21;100.00;98809.09;5142314;27;20104;-96
2023/07/23 05:00:52;;;;;;;22.33;8.68;;;;;;;23.50;100.00;98842.06;5140594;27;20039;-96
2023/07/23 05:03:19;;;;;;;21.60;8.30;;;;;;;23.49;100.00;98816.75;5142110;27;20385;-96
2023/07/23 05:05:49;;;;;;;18.90;8.38;;;;;;;23.65;100.00;98823.69;5140192;27;20103;-96
2023/07/23 05:08:15;;;;;;;22.58;8.85;;;;;;;23.88;100.00;98840.88;5139974;27;20050;-96
2023/07/23 05:10:41;;;;;;;20.95;9.48;;;;;;;23.87;100.00;98820.13;5140465;27;20047;-96
2023/07/23 05:13:07;;;;;;;21.80;8.27;;;;;;;23.99;100.00;98827.28;5143005;27;20047;-96
2023/07/23 05:15:33;;;;;;;16.75;8.23;;;;;;;23.98;100.00;98811.97;5142198;27;20039;-95
2023/07/23 05:17:59;;;;;;;16.63;8.38;;;;;;;24.08;100.00;98820.25;5141509;27;20051;-96
2023/07/23 05:20:25;;;;;;;19.30;8.90;;;;;;;24.17;100.00;98827.63;5141145;27;20043;-96
2023/07/23 05:22:52;;;;;;;20.63;8.25;;;;;;;24.20;100.00;98819.19;5139761;27;20043;-96
2023/07/23 05:25:18;;;;;;;22.50;9.35;;;;;;;24.07;100.00;98829.34;5139210;27;20456;-96
2023/07/23 05:27:44;;;;;;;17.38;8.15;;;;;;;24.27;100.00;98839.47;5139387;27;20051;-96
2023/07/23 05:30:11;;;;;;;18.83;8.48;;;;;;;24.38;100.00;98838.59;5140242;27;20043;-96
2023/07/23 05:32:36;;;;;;;18.52;8.20;;;;;;;24.30;100.00;98830.19;5139087;27;20039;-96
2023/07/23 05:35:04;;;;;;;18.70;9.02;;;;;;;24.24;100.00;98874.19;5137131;27;20066;-95
2023/07/23 05:37:30;;;;;;;18.33;8.20;;;;;;;24.16;100.00;98844.94;5138976;27;20043;-96
2023/07/23 05:39:57;;;;;;;17.23;8.70;;;;;;;24.15;100.00;98844.03;5138799;27;20043;-96
2023/07/23 05:42:23;;;;;;;18.35;8.38;;;;;;;24.25;100.00;98854.19;5138488;28;20511;-94
2023/07/23 05:44:49;;;;;;;19.27;7.88;;;;;;;24.41;100.00;98862.78;5137528;28;20047;-96
2023/07/23 05:47:15;;;;;;;19.63;8.55;;;;;;;24.34;100.00;98835.25;5137309;28;20449;-95
2023/07/23 05:49:41;;;;;;;17.25;8.32;;;;;;;24.64;100.00;98830.13;5139320;28;20039;-96
2023/07/23 05:52:07;;;;;;;19.83;8.32;;;;;;;24.55;100.00;98846.22;5138293;28;20043;-96
2023/07/23 05:54:33;;;;;;;22.17;8.23;;;;;;;24.51;100.00;98835.75;5139877;28;20047;-95
2023/07/23 05:57:01;;;;;;;18.98;8.70;;;;;;;24.85;100.00;98850.06;5139463;28;20119;-96
2023/07/23 05:59:26;;;;;;;20.38;8.50;;;;;;;24.98;100.00;98850.75;5137364;28;20050;-96
2023/07/23 06:01:53;;;;;;;18.17;8.18;;;;;;;25.02;100.00;98825.00;5138920;28;20514;-96
2023/07/23 06:04:20;;;;;;;19.95;8.43;;;;;;;25.23;100.00;98816.03;5140530;28;20035;-96
2023/07/23 06:06:46;;;;;;;18.42;8.73;;;;;;;25.35;100.00;98844.00;5138156;28;20043;-96
2023/07/23 06:09:14;;;;;;;19.60;8.07;;;;;;;25.04;100.00;98859.38;5137821;28;20029;-96
2023/07/23 06:12:06;;;;;;;15.60;8.05;;;;;;;25.22;100.00;98855.09;5138047;28;20483;-96
2023/07/23 06:14:32;;;;;;;15.57;8.05;;;;;;;25.82;100.00;98866.22;5139417;28;20044;-96
2023/07/23 06:16:58;;;;;;;18.75;8.48;;;;;;;26.21;99.47;98852.78;5138560;28;20027;-96
2023/07/23 06:19:24;;;;;;;13.63;7.90;;;;;;;26.86;96.28;98860.53;5138917;28;20050;-96
2023/07/23 06:21:50;;;;;;;23.10;8.02;;;;;;;27.09;94.02;98861.97;5136867;28;20054;-96
2023/07/23 06:24:16;;;;;;;19.30;7.75;;;;;;;27.42;93.08;98868.88;5136779;28;20043;-95
2023/07/23 06:26:42;;;;;;;13.57;6.80;;;;;;;27.68;91.29;98872.84;5137727;28;20039;-96
2023/07/23 06:29:09;;;;;;;17.33;7.90;;;;;;;27.55;91.02;98878.63;5138028;28;20171;-96
2023/07/23 06:31:35;;;;;;;14.43;7.20;;;;;;;27.17;95.05;98877.63;5138602;28;20051;-96
2023/07/23 06:34:01;;;;;;;16.73;7.72;;;;;;;26.89;95.00;98872.03;5140587;28;20047;-95
2023/07/23 06:36:27;;;;;;;16.20;7.97;;;;;;;26.88;94.83;98886.66;5140559;28;20076;-96
2023/07/23 06:38:56;;;;;;;15.20;7.18;;;;;;;26.63;95.29;98878.03;5147435;28;20042;-96
2023/07/23 06:41:22;;;;;;;16.20;7.55;;;;;;;26.72;95.14;98875.44;5152015;28;20046;-96
2023/07/23 06:43:48;;;;;;;17.00;7.47;;;;;;;26.91;96.43;98893.69;5146926;28;20039;-95
2023/07/23 06:46:20;;;;;;;18.73;8.00;;;;;;;27.00;96.77;98881.94;5124461;27;20046;-96
2023/07/23 06:48:46;;;;;;;16.10;7.88;;;;;;;27.02;95.19;98866.28;5127192;27;20043;-94
2023/07/23 06:51:12;;;;;;;16.92;7.43;;;;;;;27.50;95.90;98881.81;5126407;27;20534;-96
2023/07/23 06:53:38;;;;;;;17.13;7.70;;;;;;;27.74;93.00;98866.78;5125709;27;20049;-95
2023/07/23 06:56:06;;;;;;;18.42;8.13;;;;;;;28.26;89.86;98876.25;5128966;27;20053;-96
2023/07/23 06:58:33;;;;;;;20.52;7.70;;;;;;;28.43;88.03;98870.94;5129801;27;20031;-96
2023/07/23 07:01:03;;;;;;;14.40;7.30;;;;;;;28.17;89.73;98866.22;5132304;27;20507;-95
2023/07/23 07:03:32;;;;;;;17.75;7.18;;;;;;;28.24;90.82;98872.78;5130120;27;20062;-96
2023/07/23 07:05:58;;;;;;;;;;;;;;;28.59;90.07;98897.69;5131121;27;20047;-94
2023/07/23 07:08:26;;;;;;;17.55;7.60;;;;;;;28.32;90.08;98874.75;5127688;27;20264;-96
2023/07/23 07:10:58;;;;;;;18.58;7.30;;;;;;;28.43;89.76;98870.94;5129239;27;20106;-96
2023/07/23 07:13:24;;;;;;;18.17;8.23;;;;;;;28.36;91.41;98878.06;5131253;27;20036;-95
2023/07/23 07:15:50;;;;;;;12.02;7.15;;;;;;;28.65;91.38;98880.66;5130244;27;20047;-96
2023/07/23 07:18:16;;;;;;;16.30;6.90;;;;;;;29.27;89.57;98889.84;5130738;27;20511;-95
2023/07/23 07:20:43;;;;;;;20.42;7.85;;;;;;;28.98;88.84;98881.84;5130283;27;20039;-96
2023/07/23 07:23:09;;;;;;;22.13;7.82;;;;;;;28.93;89.89;98886.06;5129311;27;20050;-95
2023/07/23 07:25:36;;;;;;;14.85;7.10;;;;;;;28.95;91.58;98881.28;5127211;27;20459;-96
2023/07/23 07:28:02;;;;;;;15.65;7.43;;;;;;;29.27;89.07;98883.50;5129043;27;20106;-96
2023/07/23 07:30:28;;;;;;;15.68;7.40;;;;;;;29.34;89.51;98881.00;5127784;27;20039;-95
2023/07/23 07:32:57;;;;;;;15.43;6.90;;;;;;;28.94;92.38;98876.84;5126762;27;20070;-96
2023/07/23 07:35:25;;;;;;;18.40;6.68;;;;;;;29.25;91.20;98875.44;5131497;27;20051;-96
2023/07/23 07:37:58;;;;;;;20.13;7.32;;;;;;;29.81;89.87;98900.72;5134124;27;20047;-96
2023/07/23 07:40:25;;;;;;;15.48;7.10;;;;;;;30.07;88.54;98869.69;5132900;27;20035;-96
2023/07/23 07:42:51;;;;;;;15.55;7.00;;;;;;;29.23;92.51;98882.09;5129496;27;20039;-96
2023/07/23 07:45:17;;;;;;;14.40;6.80;;;;;;;29.52;92.10;98865.41;5134176;27;20031;-96
2023/07/23 07:47:44;;;;;;;14.68;6.57;;;;;;;29.76;91.00;98874.84;5129003;27;20055;-96
2023/07/23 07:50:10;;;;;;;17.92;7.85;;;;;;;30.04;88.76;98875.53;5125240;27;20035;-95
2023/07/23 07:52:36;;;;;;;16.02;7.40;;;;;;;30.10;89.40;98870.25;5124121;27;20043;-96
2023/07/23 07:55:04;;;;;;;17.85;7.53;;;;;;;30.20;88.04;98853.63;5129278;27;20146;-96
2023/07/23 07:57:33;;;;;;;14.18;7.00;;;;;;;29.61;90.00;98858.94;5124099;28;20039;-94
2023/07/23 08:00:03;;;;;;;17.75;7.95;;;;;;;29.63;92.35;98878.84;5126436;27;20042;-95
2023/07/23 08:02:29;;;;;;;13.90;6.95;;;;;;;29.07;93.41;98872.69;5125636;27;20067;-92
2023/07/23 08:04:55;;;;;;;14.07;6.68;;;;;;;29.35;92.95;98863.56;5126008;27;20470;-95
2023/07/23 08:07:21;;;;;;;18.55;7.70;;;;;;;29.92;89.91;98849.41;5126251;27;20043;-95
2023/07/23 08:09:48;;;;;;;19.98;7.25;;;;;;;30.07;89.58;98859.59;5126054;27;20039;-95
2023/07/23 08:12:17;;;;;;;14.75;6.80;;;;;;;30.08;89.07;98863.22;5120933;27;20086;-93
2023/07/23 08:14:43;;;;;;;15.10;7.28;;;;;;;29.93;89.89;98853.84;5117524;27;20047;-92
2023/07/23 08:17:10;;;;;;;16.25;6.72;;;;;;;29.37;92.45;98865.13;5118719;27;20041;-94
2023/07/23 08:19:36;;;;;;;15.55;6.53;;;;;;;29.86;89.60;98846.31;5119140;27;20134;-93
2023/07/23 08:22:03;;;;;;;13.10;6.70;;;;;;;30.57;85.90;98859.81;5119467;27;20082;-93
2023/07/23 08:24:29;;;;;;;14.27;6.95;;;;;;;30.78;85.28;98864.84;5118938;27;20490;-95
2023/07/23 08:27:00;;;;;;;17.33;6.70;;;;;;;31.30;81.82;98870.94;5115658;28;20036;-92
2023/07/23 08:29:30;;;;;;;11.75;6.53;;;;;;;31.43;80.67;98875.94;5118024;27;20042;-93
2023/07/23 08:31:56;;;;;;;18.77;7.15;;;;;;;31.00;82.82;98874.34;5119192;27;20039;-93
2023/07/23 08:34:22;;;;;;;19.42;6.93;;;;;;;29.91;85.53;98870.47;5119359;27;20050;-92
2023/07/23 08:36:49;;;;;;;13.25;7.32;;;;;;;29.49;87.18;98866.59;5117401;27;20076;-92
2023/07/23 08:39:15;;;;;;;19.40;6.88;;;;;;;30.05;86.43;98867.09;5118542;27;20047;-93
2023/07/23 08:42:08;;;;;;;14.02;6.55;;;;;;;30.32;84.29;98845.13;5118454;27;20162;-93
2023/07/23 08:45:11;;;;;;;12.35;7.07;;;;;;;30.41;82.57;98871.59;5111787;28;20069;-93
2023/07/23 08:47:38;;;;;;;14.10;7.40;;;;;;;30.87;81.04;98861.97;5116186;27;20096;-94
2023/07/23 08:50:05;;;;;;;15.40;6.57;;;;;;;30.75;80.92;98866.00;5114323;27;20507;-93
2023/07/23 08:52:31;;;;;;;12.50;6.20;;;;;;;31.06;79.56;98870.94;5117618;27;20116;-92
2023/07/23 08:54:58;;;;;;;16.48;7.00;;;;;;;30.73;81.05;98857.13;5116997;27;20039;-93
2023/07/23 08:57:24;;;;;;;13.32;7.07;;;;;;;31.21;80.49;98880.22;5117631;27;20039;-93
2023/07/23 08:59:50;;;;;;;11.70;6.35;;;;;;;30.60;81.18;98863.09;5118100;27;20077;-93
2023/07/23 09:02:19;;;;;;;13.18;6.05;;;;;;;30.97;80.09;98848.09;5117058;27;20096;-93
2023/07/23 09:04:47;;;;;;;15.77;6.65;;;;;;;31.23;78.36;98871.78;5114832;27;20039;-93
2023/07/23 09:07:15;;;;;;;12.40;6.63;;;;;;;31.35;77.59;98875.91;5118019;27;20434;-93
2023/07/23 09:09:40;;;;;;;12.05;6.50;;;;;;;31.50;74.39;98868.72;5117770;27;20043;-95
2023/07/23 09:12:07;;;;;;;11.38;6.22;;;;;;;31.65;73.48;98879.00;5117815;27;20050;-93
2023/07/23 09:14:41;;;;;;;11.20;5.70;;;;;;;31.93;72.82;98879.47;5116568;27;20155;-91
2023/07/23 09:17:15;;;;;;;11.80;6.20;;;;;;;32.11;71.65;98882.88;5117289;27;20039;-93
2023/07/23 09:19:41;;;;;;;14.45;6.68;;;;;;;31.84;71.17;98881.38;5115514;27;20049;-93
2023/07/23 09:22:08;;;;;;;12.23;6.50;;;;;;;31.56;71.96;98878.16;5118588;27;20133;-93
2023/07/23 09:24:34;;;;;;;14.55;6.63;;;;;;;31.88;72.71;98870.88;5118098;27;20046;-94
2023/07/23 09:27:00;;;;;;;13.52;5.93;;;;;;;31.94;70.26;98867.44;5117712;28;20043;-92
2023/07/23 09:29:34;;;;;;;16.38;6.65;;;;;;;32.02;70.52;98869.34;5118195;27;20065;-93
2023/07/23 09:32:00;;;;;;;15.02;6.43;;;;;;;32.24;70.96;98873.22;5117153;27;20031;-93
2023/07/23 09:34:25;;;;;;;13.68;6.18;;;;;;;32.17;70.79;98863.97;5118748;28;20042;-92
2023/07/23 09:36:52;;;;;;;11.50;6.05;;;;;;;32.00;67.66;98863.16;5118189;27;20031;-94
2023/07/23 09:39:23;;;;;;;15.18;6.20;;;;;;;32.31;69.37;98868.69;5113905;28;20051;-94
2023/07/23 09:41:52;;;;;;;13.35;6.63;;;;;;;32.57;68.20;98868.44;5117072;28;20040;-94
2023/07/23 09:44:23;;;;;;;13.75;6.70;;;;;;;32.52;70.03;98857.97;5115685;28;20054;-94
2023/07/23 09:46:49;;;;;;;12.60;5.95;;;;;;;32.70;68.42;98868.75;5115222;28;20040;-94
2023/07/23 09:49:15;;;;;;;16.80;6.93;;;;;;;32.00;59.16;98861.25;5118001;28;20043;-93
2023/07/23 09:51:51;;;;;;;13.38;6.05;;;;;;;32.22;57.76;98858.78;5117535;28;20067;-94
2023/07/23 09:54:17;;;;;;;14.30;6.25;;;;;;;32.06;56.96;98852.31;5116549;28;20047;-92
2023/07/23 09:56:45;;;;;;;14.80;6.75;;;;;;;32.07;55.13;98854.00;5113839;28;20085;-93
2023/07/23 09:59:11;;;;;;;;;;;;;;;32.44;55.01;98866.22;5117076;28;20457;-93
2023/07/23 10:01:37;;;;;;;11.80;6.18;;;;;;;32.60;53.27;98864.50;5116328;28;19950;-92
2023/07/23 10:04:04;;;;;;;13.27;5.80;;;;;;;32.82;51.42;98857.31;5116746;28;20039;-93
2023/07/23 10:06:30;;;;;;;12.17;6.23;;;;;;;33.07;51.15;98855.25;5116318;28;20039;-94
2023/07/23 10:08:57;;;;;;;15.23;5.75;;;;;;;32.90;50.46;98855.34;5117566;28;20037;-94
2023/07/23 10:11:23;;;;;;;12.43;5.78;;;;;;;33.12;50.36;98855.56;5117411;28;20043;-94
2023/07/23 10:13:53;;;;;;;14.43;6.20;;;;;;;32.56;51.14;98841.97;5115921;28;20108;-96
2023/07/23 10:16:23;;;;;;;15.32;6.00;;;;;;;32.94;50.09;98840.16;5116504;28;20031;-93
2023/07/23 10:18:51;;;;;;;13.63;6.65;;;;;;;32.79;49.25;98828.22;5115690;28;20043;-94
2023/07/23 10:21:18;;;;;;;9.85;6.25;;;;;;;32.86;48.85;98826.44;5117942;27;20468;-94
2023/07/23 10:23:52;;;;;;;11.07;5.50;;;;;;;32.67;50.29;98844.28;5120757;27;20084;-95
2023/07/23 10:26:20;;;;;;;12.55;6.38;;;;;;;32.90;47.93;98835.19;5120792;27;20504;-93
2023/07/23 10:28:46;;;;;;;;;;;;;;;32.97;46.94;98835.34;5120995;27;20174;-94
2023/07/23 10:31:21;;;;;;;11.90;5.90;;;;;;;33.24;48.36;98815.47;5120084;27;19957;-94
2023/07/23 10:33:50;;;;;;;10.48;5.55;;;;;;;33.49;47.31;98815.28;5118155;27;20039;-93
2023/07/23 10:36:16;;;;;;;;;;;;;;;33.51;46.61;98819.56;5120314;27;20042;-94
2023/07/23 10:38:41;;;;;;;11.93;5.82;;;;;;;33.20;47.85;98808.63;5121647;27;19955;-94
2023/07/23 10:41:07;;;;;;;12.43;6.00;;;;;;;32.92;48.75;98797.28;5121731;27;20050;-95
2023/07/23 10:43:38;;;;;;;13.30;5.95;;;;;;;33.46;47.89;98810.97;5120058;27;20433;-93
2023/07/23 10:46:05;;;;;;;11.95;6.28;;;;;;;33.41;46.62;98802.41;5116911;28;20031;-95
2023/07/23 10:48:41;;;;;;;14.32;6.10;;;;;;;33.59;46.80;98813.09;5115285;27;20083;-95
2023/07/23 10:51:09;;;;;;;15.20;6.00;;;;;;;33.54;46.63;98791.59;5100425;28;20047;-94
2023/07/23 10:53:39;;;;;;;12.70;6.50;;;;;;;32.74;49.04;98801.22;5107131;28;20134;-94
2023/07/23 10:56:22;;;;;;;10.25;5.63;;;;;;;33.06;48.42;98799.28;5102588;28;20122;-93
2023/07/23 10:58:48;;;;;;;14.75;6.53;;;;;;;33.55;47.85;98817.28;5104757;28;20046;-96
2023/07/23 11:01:20;;;;;;;11.95;6.10;;;;;;;33.82;47.64;98801.16;5101057;28;20048;-95
2023/07/23 11:03:48;;;;;;;10.93;5.70;;;;;;;33.54;47.37;98813.66;5108653;27;20492;-96
2023/07/23 11:06:28;;;;;;;12.95;6.03;;;;;;;33.99;46.19;98810.94;5116449;27;20043;-95
2023/07/23 11:08:57;;;;;;;11.70;5.93;;;;;;;34.18;45.77;98793.00;5104469;27;20392;-95
2023/07/23 11:11:29;;;;;;;12.75;6.00;;;;;;;34.10;46.58;98809.63;5105856;27;20043;-95
2023/07/23 11:13:55;;;;;;;11.50;5.95;;;;;;;33.58;46.20;98789.31;5104572;28;20043;-96
2023/07/23 11:16:21;;;;;;;11.88;6.20;;;;;;;33.39;47.45;98798.13;5100608;28;20047;-94
2023/07/23 11:18:49;;;;;;;14.30;6.13;;;;;;;33.71;47.59;98795.06;5101717;28;20036;-95
2023/07/23 11:21:16;;;;;;;;;;;;;;;33.59;45.96;98809.47;5104031;28;20374;-96